createdAt,value
2019-05-17T00:00:04.449Z,7.70
2019-05-17T00:01:07.063Z,7.70
2019-05-17T00:02:06.907Z,7.70
2019-05-17T00:03:06.772Z,7.70
2019-05-17T00:04:07.024Z,7.70
2019-05-17T00:05:06.736Z,7.70
2019-05-17T00:06:06.636Z,7.70
2019-05-17T00:07:06.473Z,7.70
2019-05-17T00:08:04.203Z,7.70
2019-05-17T00:09:04.317Z,7.70
2019-05-17T00:10:06.721Z,7.70
2019-05-17T00:11:06.520Z,7.70
2019-05-17T00:12:09.551Z,7.70
2019-05-17T00:13:07.006Z,7.70
2019-05-17T00:14:06.154Z,7.70
2019-05-17T00:15:04.361Z,7.70
2019-05-17T00:16:06.998Z,7.70
2019-05-17T00:17:06.616Z,7.70
2019-05-17T00:18:06.445Z,7.70
2019-05-17T00:19:04.357Z,7.70
2019-05-17T00:20:06.266Z,7.70
2019-05-17T00:21:07.142Z,7.70
2019-05-17T00:22:04.416Z,7.70
2019-05-17T00:23:06.960Z,7.70
2019-05-17T00:24:06.622Z,7.70
2019-05-17T00:25:07.124Z,7.70
2019-05-17T00:26:07.096Z,7.70
2019-05-17T00:27:06.671Z,7.70
2019-05-17T00:28:04.343Z,7.70
2019-05-17T00:29:06.767Z,7.70
2019-05-17T00:30:06.468Z,7.70
2019-05-17T00:31:06.472Z,7.70
2019-05-17T00:32:06.258Z,7.70
2019-05-17T00:33:07.472Z,7.70
2019-05-17T00:34:04.481Z,7.70
2019-05-17T00:35:07.017Z,7.70
2019-05-17T00:36:06.933Z,7.70
2019-05-17T00:37:06.974Z,7.70
2019-05-17T00:38:06.560Z,7.70
2019-05-17T00:39:04.328Z,7.70
2019-05-17T00:40:07.141Z,7.70
2019-05-17T00:41:06.898Z,7.70
2019-05-17T00:42:06.909Z,7.70
2019-05-17T00:43:06.659Z,7.70
2019-05-17T00:44:06.265Z,7.70
2019-05-17T00:45:06.702Z,7.70
2019-05-17T00:46:09.534Z,7.70
2019-05-17T00:47:06.486Z,7.70
2019-05-17T00:48:06.448Z,7.70
2019-05-17T00:49:06.332Z,7.60
2019-05-17T00:50:04.499Z,7.70
2019-05-17T00:51:09.232Z,7.70
2019-05-17T00:52:04.173Z,7.60
2019-05-17T00:53:07.165Z,7.60
2019-05-17T00:54:06.762Z,7.60
2019-05-17T00:55:06.352Z,7.60
2019-05-17T00:56:06.461Z,7.60
2019-05-17T00:57:04.401Z,7.60
2019-05-17T00:58:06.650Z,7.60
2019-05-17T00:59:04.492Z,7.60
2019-05-17T01:00:05.090Z,7.60
2019-05-17T01:01:04.377Z,7.60
2019-05-17T01:02:06.914Z,7.70
2019-05-17T01:03:06.776Z,7.60
2019-05-17T01:04:06.312Z,7.60
2019-05-17T01:05:06.305Z,7.70
2019-05-17T01:06:10.088Z,7.60
2019-05-17T01:07:06.786Z,7.60
2019-05-17T01:08:06.892Z,7.60
2019-05-17T01:09:07.591Z,7.60
2019-05-17T01:10:04.450Z,7.60
2019-05-17T01:11:06.925Z,7.60
2019-05-17T01:12:06.641Z,7.60
2019-05-17T01:13:06.732Z,7.60
2019-05-17T01:14:06.767Z,7.60
2019-05-17T01:15:04.568Z,7.60
2019-05-17T01:16:07.221Z,7.60
2019-05-17T01:17:06.985Z,7.60
2019-05-17T01:18:07.053Z,7.60
2019-05-17T01:19:06.789Z,7.60
2019-05-17T01:20:06.665Z,7.60
2019-05-17T01:21:06.384Z,7.60
2019-05-17T01:22:07.304Z,7.60
2019-05-17T01:23:04.268Z,7.60
2019-05-17T01:24:06.297Z,7.60
2019-05-17T01:25:06.316Z,7.60
2019-05-17T01:26:06.922Z,7.60
2019-05-17T01:27:06.510Z,7.60
2019-05-17T01:28:04.234Z,7.60
2019-05-17T01:29:06.209Z,7.60
2019-05-17T01:30:06.326Z,7.60
2019-05-17T01:31:06.618Z,7.60
2019-05-17T01:32:06.505Z,7.60
2019-05-17T01:33:06.555Z,7.60
2019-05-17T01:34:04.352Z,7.60
2019-05-17T01:35:07.105Z,7.60
2019-05-17T01:36:06.758Z,7.60
2019-05-17T01:37:06.448Z,7.60
2019-05-17T01:38:04.281Z,7.60
2019-05-17T01:39:15.098Z,7.60
2019-05-17T01:40:06.589Z,7.60
2019-05-17T01:41:04.370Z,7.60
2019-05-17T01:42:06.692Z,7.60
2019-05-17T01:43:04.384Z,7.60
2019-05-17T01:44:09.948Z,7.60
2019-05-17T01:45:04.243Z,7.60
2019-05-17T01:46:06.646Z,7.60
2019-05-17T01:47:04.579Z,7.60
2019-05-17T01:48:07.020Z,7.60
2019-05-17T01:49:06.841Z,7.60
2019-05-17T01:50:06.629Z,7.60
2019-05-17T01:51:04.699Z,7.60
2019-05-17T01:52:04.393Z,7.60
2019-05-17T01:53:06.786Z,7.60
2019-05-17T01:54:06.800Z,7.60
2019-05-17T01:55:06.506Z,7.60
2019-05-17T01:56:06.321Z,7.60
2019-05-17T01:57:07.125Z,7.60
2019-05-17T01:58:07.243Z,7.60
2019-05-17T01:59:06.764Z,7.60
2019-05-17T02:00:06.352Z,7.60
2019-05-17T02:01:07.354Z,7.60
2019-05-17T02:02:07.007Z,7.60
2019-05-17T02:03:06.993Z,7.50
2019-05-17T02:04:06.574Z,7.60
2019-05-17T02:05:06.417Z,7.60
2019-05-17T02:06:07.406Z,7.60
2019-05-17T02:07:06.821Z,7.50
2019-05-17T02:08:06.582Z,7.50
2019-05-17T02:09:06.303Z,7.50
2019-05-17T02:10:04.464Z,7.50
2019-05-17T02:11:06.783Z,7.50
2019-05-17T02:12:06.543Z,7.50
2019-05-17T02:13:06.429Z,7.50
2019-05-17T02:14:06.456Z,7.50
2019-05-17T02:15:06.786Z,7.50
2019-05-17T02:16:06.980Z,7.50
2019-05-17T02:17:06.816Z,7.50
2019-05-17T02:18:06.765Z,7.50
2019-05-17T02:19:06.350Z,7.50
2019-05-17T02:20:06.397Z,7.50
2019-05-17T02:21:06.484Z,7.40
2019-05-17T02:22:07.279Z,7.40
2019-05-17T02:23:07.225Z,7.40
2019-05-17T02:24:07.739Z,7.40
2019-05-17T02:25:04.235Z,7.50
2019-05-17T02:26:06.608Z,7.40
2019-05-17T02:27:04.508Z,7.40
2019-05-17T02:28:05.144Z,7.40
2019-05-17T02:29:04.219Z,7.40
2019-05-17T02:30:04.189Z,7.40
2019-05-17T02:31:04.647Z,7.50
2019-05-17T02:32:04.920Z,7.50
2019-05-17T02:33:04.621Z,7.50
2019-05-17T02:34:04.340Z,7.40
2019-05-17T02:35:04.168Z,7.50
2019-05-17T02:36:04.802Z,7.50
2019-05-17T02:37:04.863Z,7.50
2019-05-17T02:38:04.468Z,7.40
2019-05-17T02:39:04.559Z,7.40
2019-05-17T02:40:08.156Z,7.40
2019-05-17T02:41:05.132Z,7.40
2019-05-17T02:42:04.279Z,7.40
2019-05-17T02:43:04.882Z,7.40
2019-05-17T02:44:12.729Z,7.40
2019-05-17T02:45:04.407Z,7.50
2019-05-17T02:46:04.960Z,7.50
2019-05-17T02:47:05.047Z,7.40
2019-05-17T02:48:04.485Z,7.40
2019-05-17T02:49:04.650Z,7.40
2019-05-17T02:50:05.389Z,7.40
2019-05-17T02:51:04.764Z,7.40
2019-05-17T02:52:05.263Z,7.40
2019-05-17T02:53:04.885Z,7.40
2019-05-17T02:54:04.724Z,7.40
2019-05-17T02:55:04.674Z,7.40
2019-05-17T02:56:04.739Z,7.40
2019-05-17T02:57:04.346Z,7.40
2019-05-17T02:58:04.562Z,7.40
2019-05-17T02:59:04.841Z,7.40
2019-05-17T03:00:04.829Z,7.40
2019-05-17T03:01:04.826Z,7.40
2019-05-17T03:02:04.391Z,7.40
2019-05-17T03:03:04.427Z,7.40
2019-05-17T03:04:04.387Z,7.40
2019-05-17T03:05:04.531Z,7.40
2019-05-17T03:06:04.840Z,7.40
2019-05-17T03:07:04.286Z,7.40
2019-05-17T03:08:04.733Z,7.40
2019-05-17T03:09:04.511Z,7.40
2019-05-17T03:10:17.896Z,7.40
2019-05-17T03:11:05.019Z,7.40
2019-05-17T03:12:04.920Z,7.30
2019-05-17T03:13:04.940Z,7.30
2019-05-17T03:14:04.624Z,7.30
2019-05-17T03:15:04.973Z,7.30
2019-05-17T03:16:05.077Z,7.30
2019-05-17T03:17:05.044Z,7.30
2019-05-17T03:18:04.691Z,7.30
2019-05-17T03:19:04.882Z,7.30
2019-05-17T03:20:04.714Z,7.30
2019-05-17T03:21:04.833Z,7.30
2019-05-17T03:22:07.713Z,7.30
2019-05-17T03:23:04.574Z,7.30
2019-05-17T03:24:04.625Z,7.30
2019-05-17T03:25:04.991Z,7.20
2019-05-17T03:26:05.078Z,7.30
2019-05-17T03:27:05.152Z,7.30
2019-05-17T03:28:05.305Z,7.20
2019-05-17T03:29:04.539Z,7.20
2019-05-17T03:30:04.737Z,7.20
2019-05-17T03:31:07.544Z,7.20
2019-05-17T03:32:08.264Z,7.20
2019-05-17T03:33:07.589Z,7.20
2019-05-17T03:34:06.193Z,7.20
2019-05-17T03:35:07.225Z,7.20
2019-05-17T03:36:06.029Z,7.20
2019-05-17T03:37:06.698Z,7.20
2019-05-17T03:38:04.697Z,7.20
2019-05-17T03:39:04.236Z,7.20
2019-05-17T03:40:23.282Z,7.20
2019-05-17T03:41:16.935Z,7.20
2019-05-17T03:42:04.796Z,7.20
2019-05-17T03:43:04.372Z,7.20
2019-05-17T03:44:04.971Z,7.20
2019-05-17T03:45:04.969Z,7.20
2019-05-17T03:46:04.545Z,7.20
2019-05-17T03:47:04.513Z,7.20
2019-05-17T03:48:05.352Z,7.20
2019-05-17T03:49:05.153Z,7.20
2019-05-17T03:50:04.721Z,7.20
2019-05-17T03:51:04.968Z,7.20
2019-05-17T03:52:05.051Z,7.20
2019-05-17T03:53:04.649Z,7.20
2019-05-17T03:54:04.769Z,7.20
2019-05-17T03:55:04.882Z,7.20
2019-05-17T03:56:04.377Z,7.20
2019-05-17T03:57:04.805Z,7.20
2019-05-17T03:58:05.082Z,7.20
2019-05-17T03:59:05.214Z,7.20
2019-05-17T04:00:04.477Z,7.20
2019-05-17T04:01:05.041Z,7.20
2019-05-17T04:02:04.425Z,7.20
2019-05-17T04:03:04.399Z,7.20
2019-05-17T04:04:04.622Z,7.20
2019-05-17T04:05:04.776Z,7.20
2019-05-17T04:06:04.711Z,7.20
2019-05-17T04:07:04.874Z,7.20
2019-05-17T04:08:05.199Z,7.20
2019-05-17T04:09:04.695Z,7.20
2019-05-17T04:10:04.965Z,7.20
2019-05-17T04:11:21.922Z,7.20
2019-05-17T04:12:05.315Z,7.30
2019-05-17T04:13:04.705Z,7.30
2019-05-17T04:14:05.150Z,7.30
2019-05-17T04:15:04.332Z,7.30
2019-05-17T04:16:08.834Z,7.30
2019-05-17T04:17:05.003Z,7.30
2019-05-17T04:18:04.748Z,7.30
2019-05-17T04:19:04.768Z,7.30
2019-05-17T04:20:05.086Z,7.30
2019-05-17T04:21:04.633Z,7.30
2019-05-17T04:22:04.765Z,7.30
2019-05-17T04:23:04.718Z,7.30
2019-05-17T04:24:04.989Z,7.30
2019-05-17T04:25:05.698Z,7.30
2019-05-17T04:26:05.284Z,7.30
2019-05-17T04:27:04.849Z,7.30
2019-05-17T04:28:05.221Z,7.40
2019-05-17T04:29:04.441Z,7.40
2019-05-17T04:30:05.263Z,7.40
2019-05-17T04:31:04.819Z,7.40
2019-05-17T04:32:04.704Z,7.40
2019-05-17T04:33:04.733Z,7.40
2019-05-17T04:34:04.919Z,7.40
2019-05-17T04:35:04.699Z,7.40
2019-05-17T04:36:04.772Z,7.40
2019-05-17T04:37:04.712Z,7.40
2019-05-17T04:38:04.750Z,7.50
2019-05-17T04:39:04.878Z,7.50
2019-05-17T04:40:05.054Z,7.50
2019-05-17T04:41:04.596Z,7.50
2019-05-17T04:42:04.634Z,7.50
2019-05-17T04:43:05.194Z,7.50
2019-05-17T04:44:04.532Z,7.50
2019-05-17T04:45:12.446Z,7.50
2019-05-17T04:46:04.410Z,7.50
2019-05-17T04:47:04.876Z,7.50
2019-05-17T04:48:04.896Z,7.60
2019-05-17T04:49:05.019Z,7.60
2019-05-17T04:50:04.528Z,7.60
2019-05-17T04:51:04.520Z,7.60
2019-05-17T04:52:05.019Z,7.60
2019-05-17T04:53:04.535Z,7.60
2019-05-17T04:54:04.452Z,7.60
2019-05-17T04:55:04.524Z,7.60
2019-05-17T04:56:04.339Z,7.70
2019-05-17T04:57:04.893Z,7.70
2019-05-17T04:58:05.074Z,7.70
2019-05-17T04:59:05.112Z,7.70
2019-05-17T05:00:04.672Z,7.70
2019-05-17T05:01:04.641Z,7.70
2019-05-17T05:02:04.945Z,7.70
2019-05-17T05:03:04.713Z,7.80
2019-05-17T05:04:05.212Z,7.80
2019-05-17T05:05:13.064Z,7.80
2019-05-17T05:06:04.326Z,7.80
2019-05-17T05:07:04.740Z,7.80
2019-05-17T05:08:05.186Z,7.80
2019-05-17T05:09:04.426Z,7.80
2019-05-17T05:10:04.743Z,7.80
2019-05-17T05:11:04.899Z,7.80
2019-05-17T05:12:06.324Z,7.90
2019-05-17T05:13:05.221Z,7.90
2019-05-17T05:14:04.701Z,7.90
2019-05-17T05:15:04.830Z,7.90
2019-05-17T05:16:04.732Z,7.90
2019-05-17T05:17:05.026Z,7.90
2019-05-17T05:18:05.067Z,7.90
2019-05-17T05:19:04.406Z,7.90
2019-05-17T05:20:05.113Z,8.00
2019-05-17T05:21:04.799Z,8.00
2019-05-17T05:22:05.005Z,8.00
2019-05-17T05:23:04.411Z,8.00
2019-05-17T05:24:04.728Z,8.00
2019-05-17T05:25:04.188Z,8.00
2019-05-17T05:26:04.433Z,8.00
2019-05-17T05:27:04.510Z,8.10
2019-05-17T05:28:04.747Z,8.10
2019-05-17T05:29:05.035Z,8.10
2019-05-17T05:30:04.775Z,8.10
2019-05-17T05:31:04.980Z,8.10
2019-05-17T05:32:05.003Z,8.10
2019-05-17T05:33:05.038Z,8.20
2019-05-17T05:34:05.132Z,8.20
2019-05-17T05:35:04.791Z,8.20
2019-05-17T05:36:04.961Z,8.20
2019-05-17T05:37:04.521Z,8.20
2019-05-17T05:38:04.804Z,8.20
2019-05-17T05:39:05.044Z,8.20
2019-05-17T05:40:05.113Z,8.20
2019-05-17T05:41:04.395Z,8.30
2019-05-17T05:42:09.853Z,8.30
2019-05-17T05:43:04.363Z,8.30
2019-05-17T05:44:12.057Z,8.30
2019-05-17T05:45:04.775Z,8.30
2019-05-17T05:46:04.918Z,8.30
2019-05-17T05:47:04.900Z,8.30
2019-05-17T05:48:05.216Z,8.30
2019-05-17T05:49:05.216Z,8.30
2019-05-17T05:50:04.594Z,8.40
2019-05-17T05:51:05.534Z,8.40
2019-05-17T05:52:04.703Z,8.40
2019-05-17T05:53:04.798Z,8.40
2019-05-17T05:54:04.842Z,8.40
2019-05-17T05:55:05.263Z,8.40
2019-05-17T05:56:04.271Z,8.40
2019-05-17T05:57:04.574Z,8.40
2019-05-17T05:58:04.789Z,8.50
2019-05-17T05:59:04.758Z,8.50
2019-05-17T06:00:04.744Z,8.50
2019-05-17T06:01:04.929Z,8.50
2019-05-17T06:02:04.942Z,8.50
2019-05-17T06:03:04.346Z,8.50
2019-05-17T06:04:04.615Z,8.50
2019-05-17T06:05:04.984Z,8.60
2019-05-17T06:06:04.651Z,8.60
2019-05-17T06:07:04.940Z,8.60
2019-05-17T06:08:04.406Z,8.60
2019-05-17T06:09:04.992Z,8.60
2019-05-17T06:10:05.155Z,8.60
2019-05-17T06:11:04.762Z,8.60
2019-05-17T06:12:05.066Z,8.60
2019-05-17T06:13:04.336Z,8.70
2019-05-17T06:14:05.202Z,8.70
2019-05-17T06:15:04.206Z,8.70
2019-05-17T06:16:04.234Z,8.70
2019-05-17T06:17:04.890Z,8.70
2019-05-17T06:18:04.963Z,8.80
2019-05-17T06:19:04.988Z,8.80
2019-05-17T06:20:04.754Z,8.80
2019-05-17T06:21:04.543Z,8.80
2019-05-17T06:22:04.982Z,8.80
2019-05-17T06:23:04.199Z,8.90
2019-05-17T06:24:04.667Z,8.90
2019-05-17T06:25:04.724Z,8.90
2019-05-17T06:26:04.886Z,8.90
2019-05-17T06:27:05.031Z,9.00
2019-05-17T06:28:04.535Z,9.00
2019-05-17T06:29:04.626Z,9.00
2019-05-17T06:30:04.797Z,9.00
2019-05-17T06:31:04.846Z,9.10
2019-05-17T06:32:04.775Z,9.10
2019-05-17T06:33:04.441Z,9.10
2019-05-17T06:34:04.424Z,9.10
2019-05-17T06:35:04.899Z,9.20
2019-05-17T06:36:05.139Z,9.20
2019-05-17T06:37:04.267Z,9.20
2019-05-17T06:38:04.312Z,9.20
2019-05-17T06:39:04.259Z,9.30
2019-05-17T06:40:04.428Z,9.30
2019-05-17T06:41:04.740Z,9.30
2019-05-17T06:42:04.311Z,9.30
2019-05-17T06:43:05.627Z,9.40
2019-05-17T06:44:09.202Z,9.40
2019-05-17T06:45:05.102Z,9.40
2019-05-17T06:46:04.658Z,9.50
2019-05-17T06:47:04.733Z,9.50
2019-05-17T06:48:04.792Z,9.50
2019-05-17T06:49:05.091Z,9.60
2019-05-17T06:50:04.353Z,9.60
2019-05-17T06:51:04.933Z,9.60
2019-05-17T06:52:04.408Z,9.70
2019-05-17T06:53:04.512Z,9.70
2019-05-17T06:54:05.056Z,9.70
2019-05-17T06:55:05.899Z,9.80
2019-05-17T06:56:04.602Z,9.80
2019-05-17T06:57:04.733Z,9.90
2019-05-17T06:58:04.373Z,9.90
2019-05-17T06:59:04.484Z,9.90
2019-05-17T07:00:07.599Z,10.00
2019-05-17T07:01:05.112Z,10.00
2019-05-17T07:02:05.387Z,10.00
2019-05-17T07:03:04.478Z,10.00
2019-05-17T07:04:10.337Z,10.10
2019-05-17T07:05:05.015Z,10.10
2019-05-17T07:06:04.422Z,10.10
2019-05-17T07:07:04.405Z,10.10
2019-05-17T07:08:05.174Z,10.20
2019-05-17T07:09:04.396Z,10.20
2019-05-17T07:10:04.421Z,10.20
2019-05-17T07:11:05.268Z,10.30
2019-05-17T07:12:04.763Z,10.30
2019-05-17T07:13:05.100Z,10.30
2019-05-17T07:14:05.170Z,10.30
2019-05-17T07:15:05.197Z,10.40
2019-05-17T07:16:04.362Z,10.40
2019-05-17T07:17:04.537Z,10.40
2019-05-17T07:18:04.669Z,10.40
2019-05-17T07:19:04.988Z,10.50
2019-05-17T07:20:04.902Z,10.50
2019-05-17T07:21:05.094Z,10.50
2019-05-17T07:22:04.606Z,10.50
2019-05-17T07:23:04.978Z,10.60
2019-05-17T07:24:05.059Z,10.60
2019-05-17T07:25:04.231Z,10.60
2019-05-17T07:26:04.382Z,10.70
2019-05-17T07:27:04.435Z,10.70
2019-05-17T07:28:04.515Z,10.70
2019-05-17T07:29:04.526Z,10.70
2019-05-17T07:30:04.500Z,10.80
2019-05-17T07:31:04.638Z,10.80
2019-05-17T07:32:04.695Z,10.80
2019-05-17T07:33:04.717Z,10.80
2019-05-17T07:34:04.812Z,10.80
2019-05-17T07:35:04.943Z,10.90
2019-05-17T07:36:04.260Z,10.90
2019-05-17T07:37:04.850Z,10.90
2019-05-17T07:38:04.993Z,10.90
2019-05-17T07:39:04.479Z,10.90
2019-05-17T07:40:05.297Z,11.00
2019-05-17T07:41:05.054Z,11.00
2019-05-17T07:42:05.105Z,11.00
2019-05-17T07:43:10.320Z,11.00
2019-05-17T07:44:04.218Z,11.00
2019-05-17T07:45:04.472Z,11.10
2019-05-17T07:46:04.710Z,11.10
2019-05-17T07:47:04.789Z,11.10
2019-05-17T07:48:05.165Z,11.10
2019-05-17T07:49:04.336Z,11.10
2019-05-17T07:50:04.771Z,11.10
2019-05-17T07:51:04.656Z,11.20
2019-05-17T07:52:04.551Z,11.20
2019-05-17T07:53:10.209Z,11.20
2019-05-17T07:54:04.839Z,11.20
2019-05-17T07:55:05.113Z,11.30
2019-05-17T07:56:05.194Z,11.30
2019-05-17T07:57:04.211Z,11.30
2019-05-17T07:58:04.273Z,11.40
2019-05-17T07:59:04.622Z,11.40
2019-05-17T08:00:04.578Z,11.40
2019-05-17T08:01:04.257Z,11.50
2019-05-17T08:02:04.673Z,11.50
2019-05-17T08:03:04.721Z,11.50
2019-05-17T08:04:04.959Z,11.60
2019-05-17T08:05:04.629Z,11.60
2019-05-17T08:06:04.723Z,11.60
2019-05-17T08:07:04.951Z,11.70
2019-05-17T08:08:04.548Z,11.70
2019-05-17T08:09:04.817Z,11.70
2019-05-17T08:10:04.666Z,11.70
2019-05-17T08:11:05.199Z,11.70
2019-05-17T08:12:04.515Z,11.70
2019-05-17T08:13:04.367Z,11.70
2019-05-17T08:14:04.659Z,11.80
2019-05-17T08:15:05.077Z,11.80
2019-05-17T08:16:05.157Z,11.80
2019-05-17T08:17:04.511Z,11.80
2019-05-17T08:18:04.925Z,11.90
2019-05-17T08:19:05.017Z,11.90
2019-05-17T08:20:05.017Z,11.90
2019-05-17T08:21:04.913Z,11.90
2019-05-17T08:22:05.114Z,11.90
2019-05-17T08:23:05.322Z,12.00
2019-05-17T08:24:05.148Z,12.00
2019-05-17T08:25:04.926Z,12.00
2019-05-17T08:26:04.552Z,12.10
2019-05-17T08:27:04.428Z,12.10
2019-05-17T08:28:04.798Z,12.10
2019-05-17T08:29:05.010Z,12.20
2019-05-17T08:30:05.176Z,12.20
2019-05-17T08:31:04.908Z,12.20
2019-05-17T08:32:04.584Z,12.30
2019-05-17T08:33:04.543Z,12.30
2019-05-17T08:34:04.786Z,12.30
2019-05-17T08:35:05.112Z,12.30
2019-05-17T08:36:04.973Z,12.30
2019-05-17T08:37:05.038Z,12.30
2019-05-17T08:38:05.032Z,12.30
2019-05-17T08:39:04.303Z,12.40
2019-05-17T08:40:04.888Z,12.40
2019-05-17T08:41:04.722Z,12.40
2019-05-17T08:42:04.925Z,12.40
2019-05-17T08:43:04.944Z,12.40
2019-05-17T08:44:04.410Z,12.40
2019-05-17T08:45:04.646Z,12.40
2019-05-17T08:46:04.658Z,12.30
2019-05-17T08:47:04.914Z,12.30
2019-05-17T08:48:04.769Z,12.30
2019-05-17T08:49:04.247Z,12.30
2019-05-17T08:50:04.500Z,12.30
2019-05-17T08:51:04.902Z,12.30
2019-05-17T08:52:05.133Z,12.30
2019-05-17T08:53:05.094Z,12.30
2019-05-17T08:54:04.462Z,12.30
2019-05-17T08:55:05.220Z,12.30
2019-05-17T08:56:05.138Z,12.30
2019-05-17T08:57:04.571Z,12.30
2019-05-17T08:58:04.726Z,12.30
2019-05-17T08:59:04.912Z,12.30
2019-05-17T09:00:04.198Z,12.30
2019-05-17T09:01:11.109Z,12.30
2019-05-17T09:02:04.614Z,12.30
2019-05-17T09:03:04.766Z,12.30
2019-05-17T09:04:04.334Z,12.30
2019-05-17T09:05:04.313Z,12.30
2019-05-17T09:06:04.594Z,12.30
2019-05-17T09:07:04.879Z,12.30
2019-05-17T09:08:05.115Z,12.30
2019-05-17T09:09:05.248Z,12.30
2019-05-17T09:10:04.329Z,12.30
2019-05-17T09:11:04.387Z,12.30
2019-05-17T09:12:04.570Z,12.30
2019-05-17T09:13:04.569Z,12.30
2019-05-17T09:14:04.812Z,12.30
2019-05-17T09:15:04.870Z,12.30
2019-05-17T09:16:04.850Z,12.30
2019-05-17T09:17:04.238Z,12.30
2019-05-17T09:18:04.737Z,12.30
2019-05-17T09:19:04.564Z,12.30
2019-05-17T09:20:04.633Z,12.30
2019-05-17T09:21:09.919Z,12.30
2019-05-17T09:22:04.252Z,12.30
2019-05-17T09:23:04.868Z,12.30
2019-05-17T09:24:05.230Z,12.30
2019-05-17T09:25:04.349Z,12.30
2019-05-17T09:26:04.364Z,12.30
2019-05-17T09:27:04.738Z,12.30
2019-05-17T09:28:04.532Z,12.30
2019-05-17T09:29:04.727Z,12.30
2019-05-17T09:30:04.774Z,12.30
2019-05-17T09:31:04.985Z,12.30
2019-05-17T09:32:04.378Z,12.30
2019-05-17T09:33:04.330Z,12.30
2019-05-17T09:34:04.630Z,12.30
2019-05-17T09:35:04.854Z,12.30
2019-05-17T09:36:05.075Z,12.30
2019-05-17T09:37:05.079Z,12.40
2019-05-17T09:38:05.257Z,12.40
2019-05-17T09:39:04.257Z,12.40
2019-05-17T09:40:04.448Z,12.40
2019-05-17T09:41:04.972Z,12.40
2019-05-17T09:42:04.996Z,12.50
2019-05-17T09:43:04.459Z,12.50
2019-05-17T09:44:12.709Z,12.60
2019-05-17T09:45:04.877Z,12.60
2019-05-17T09:46:05.108Z,12.70
2019-05-17T09:47:05.253Z,12.70
2019-05-17T09:48:04.246Z,12.70
2019-05-17T09:49:04.379Z,12.70
2019-05-17T09:50:04.516Z,12.80
2019-05-17T09:51:04.606Z,12.80
2019-05-17T09:52:04.739Z,12.90
2019-05-17T09:53:04.946Z,12.90
2019-05-17T09:54:04.589Z,12.90
2019-05-17T09:55:04.939Z,12.90
2019-05-17T09:56:04.679Z,13.00
2019-05-17T09:57:04.827Z,13.00
2019-05-17T09:58:04.556Z,13.10
2019-05-17T09:59:04.685Z,13.10
2019-05-17T10:00:04.716Z,13.10
2019-05-17T10:01:05.103Z,13.10
2019-05-17T10:02:05.043Z,13.10
2019-05-17T10:03:04.288Z,13.10
2019-05-17T10:04:13.188Z,13.10
2019-05-17T10:05:05.183Z,13.10
2019-05-17T10:06:04.432Z,13.10
2019-05-17T10:07:04.742Z,13.10
2019-05-17T10:08:04.713Z,13.10
2019-05-17T10:09:04.992Z,13.00
2019-05-17T10:10:04.911Z,13.00
2019-05-17T10:11:08.685Z,13.00
2019-05-17T10:12:04.636Z,13.00
2019-05-17T10:13:05.064Z,12.90
2019-05-17T10:14:04.359Z,12.90
2019-05-17T10:15:04.571Z,12.90
2019-05-17T10:16:04.944Z,12.80
2019-05-17T10:17:04.975Z,12.80
2019-05-17T10:18:04.474Z,12.80
2019-05-17T10:19:04.780Z,12.80
2019-05-17T10:20:04.922Z,12.80
2019-05-17T10:21:04.367Z,12.80
2019-05-17T10:22:04.448Z,12.70
2019-05-17T10:23:04.518Z,12.70
2019-05-17T10:24:05.031Z,12.70
2019-05-17T10:25:04.977Z,12.70
2019-05-17T10:26:04.272Z,12.70
2019-05-17T10:27:04.558Z,12.70
2019-05-17T10:28:05.157Z,12.70
2019-05-17T10:29:04.657Z,12.70
2019-05-17T10:30:04.642Z,12.60
2019-05-17T10:31:04.747Z,12.60
2019-05-17T10:32:05.133Z,12.70
2019-05-17T10:33:04.460Z,12.70
2019-05-17T10:34:04.715Z,12.70
2019-05-17T10:35:04.865Z,12.70
2019-05-17T10:36:04.884Z,12.70
2019-05-17T10:37:04.585Z,12.80
2019-05-17T10:38:04.664Z,12.80
2019-05-17T10:39:04.856Z,12.80
2019-05-17T10:40:05.049Z,12.90
2019-05-17T10:41:05.190Z,12.90
2019-05-17T10:42:04.370Z,12.90
2019-05-17T10:43:04.638Z,13.00
2019-05-17T10:44:04.731Z,13.00
2019-05-17T10:45:04.847Z,13.00
2019-05-17T10:46:04.555Z,13.10
2019-05-17T10:47:04.869Z,13.10
2019-05-17T10:48:04.919Z,13.10
2019-05-17T10:49:05.117Z,13.20
2019-05-17T10:50:04.324Z,13.20
2019-05-17T10:51:05.019Z,13.20
2019-05-17T10:52:04.606Z,13.30
2019-05-17T10:53:04.563Z,13.30
2019-05-17T10:54:04.838Z,13.40
2019-05-17T10:55:04.948Z,13.40
2019-05-17T10:56:05.029Z,13.50
2019-05-17T10:57:05.059Z,13.50
2019-05-17T10:58:05.247Z,13.60
2019-05-17T10:59:04.771Z,13.60
2019-05-17T11:00:04.926Z,13.70
2019-05-17T11:01:04.713Z,13.70
2019-05-17T11:02:04.871Z,13.70
2019-05-17T11:03:05.139Z,13.70
2019-05-17T11:04:04.234Z,13.80
2019-05-17T11:05:04.422Z,13.80
2019-05-17T11:06:04.865Z,13.80
2019-05-17T11:07:04.583Z,13.90
2019-05-17T11:08:05.179Z,13.90
2019-05-17T11:09:04.278Z,14.00
2019-05-17T11:10:04.738Z,14.00
2019-05-17T11:11:04.756Z,14.00
2019-05-17T11:12:04.796Z,14.10
2019-05-17T11:13:04.881Z,14.10
2019-05-17T11:14:04.253Z,14.10
2019-05-17T11:15:10.775Z,14.20
2019-05-17T11:16:04.674Z,14.20
2019-05-17T11:17:05.216Z,14.20
2019-05-17T11:18:09.359Z,14.20
2019-05-17T11:19:04.678Z,14.30
2019-05-17T11:20:05.069Z,14.30
2019-05-17T11:21:04.723Z,14.30
2019-05-17T11:22:05.107Z,14.30
2019-05-17T11:23:05.181Z,14.40
2019-05-17T11:24:04.530Z,14.40
2019-05-17T11:25:04.741Z,14.40
2019-05-17T11:26:04.706Z,14.40
2019-05-17T11:27:05.300Z,14.40
2019-05-17T11:28:04.810Z,14.40
2019-05-17T11:29:05.091Z,14.40
2019-05-17T11:30:04.460Z,14.40
2019-05-17T11:31:04.460Z,14.40
2019-05-17T11:32:04.895Z,14.40
2019-05-17T11:33:04.229Z,14.40
2019-05-17T11:34:04.324Z,14.40
2019-05-17T11:35:04.408Z,14.40
2019-05-17T11:36:04.856Z,14.40
2019-05-17T11:37:05.112Z,14.40
2019-05-17T11:38:04.276Z,14.40
2019-05-17T11:39:04.372Z,14.40
2019-05-17T11:40:07.876Z,14.40
2019-05-17T11:41:19.757Z,14.40
2019-05-17T11:42:04.225Z,14.40
2019-05-17T11:43:04.812Z,14.40
2019-05-17T11:44:04.454Z,14.40
2019-05-17T11:45:04.644Z,14.40
2019-05-17T11:46:04.557Z,14.40
2019-05-17T11:47:04.675Z,14.40
2019-05-17T11:48:05.136Z,14.40
2019-05-17T11:49:04.318Z,14.40
2019-05-17T11:50:04.537Z,14.40
2019-05-17T11:51:04.992Z,14.40
2019-05-17T11:52:10.061Z,14.50
2019-05-17T11:53:04.432Z,14.50
2019-05-17T11:54:05.052Z,14.50
2019-05-17T11:55:04.271Z,14.50
2019-05-17T11:56:04.365Z,14.60
2019-05-17T11:57:04.392Z,14.60
2019-05-17T11:58:04.818Z,14.60
2019-05-17T11:59:05.026Z,14.60
2019-05-17T12:00:04.453Z,14.60
2019-05-17T12:01:05.186Z,14.60
2019-05-17T12:02:04.593Z,14.70
2019-05-17T12:03:04.659Z,14.70
2019-05-17T12:04:04.655Z,14.70
2019-05-17T12:05:04.968Z,14.70
2019-05-17T12:06:04.333Z,14.70
2019-05-17T12:07:04.843Z,14.70
2019-05-17T12:08:04.247Z,14.70
2019-05-17T12:09:04.470Z,14.80
2019-05-17T12:10:05.239Z,14.80
2019-05-17T12:11:04.685Z,14.80
2019-05-17T12:12:10.186Z,14.80
2019-05-17T12:13:04.708Z,14.80
2019-05-17T12:14:04.285Z,14.90
2019-05-17T12:15:04.796Z,14.90
2019-05-17T12:16:04.438Z,14.90
2019-05-17T12:17:04.770Z,14.90
2019-05-17T12:18:05.215Z,14.90
2019-05-17T12:19:04.564Z,14.90
2019-05-17T12:20:04.787Z,15.00
2019-05-17T12:21:04.475Z,15.00
2019-05-17T12:22:05.240Z,15.00
2019-05-17T12:23:04.505Z,15.00
2019-05-17T12:24:05.287Z,15.00
2019-05-17T12:25:04.654Z,15.00
2019-05-17T12:26:05.049Z,15.10
2019-05-17T12:27:05.139Z,15.10
2019-05-17T12:28:04.677Z,15.10
2019-05-17T12:29:05.244Z,15.10
2019-05-17T12:30:04.922Z,15.10
2019-05-17T12:31:04.899Z,15.10
2019-05-17T12:32:05.132Z,15.10
2019-05-17T12:33:04.613Z,15.10
2019-05-17T12:34:05.071Z,15.10
2019-05-17T12:35:04.956Z,15.10
2019-05-17T12:36:04.691Z,15.10
2019-05-17T12:37:05.049Z,15.10
2019-05-17T12:38:04.479Z,15.10
2019-05-17T12:39:05.247Z,15.20
2019-05-17T12:40:04.291Z,15.10
2019-05-17T12:41:04.488Z,15.20
2019-05-17T12:42:05.053Z,15.20
2019-05-17T12:43:04.482Z,15.20
2019-05-17T12:44:04.514Z,15.20
2019-05-17T12:45:05.188Z,15.20
2019-05-17T12:46:04.353Z,15.20
2019-05-17T12:47:04.448Z,15.20
2019-05-17T12:48:04.742Z,15.30
2019-05-17T12:49:04.932Z,15.30
2019-05-17T12:50:05.253Z,15.30
2019-05-17T12:51:04.560Z,15.30
2019-05-17T12:52:04.590Z,15.30
2019-05-17T12:53:04.397Z,15.30
2019-05-17T12:54:04.725Z,15.40
2019-05-17T12:55:04.835Z,15.40
2019-05-17T12:56:04.898Z,15.40
2019-05-17T12:57:05.007Z,15.40
2019-05-17T12:58:04.922Z,15.40
2019-05-17T12:59:05.201Z,15.40
2019-05-17T13:00:09.471Z,15.40
2019-05-17T13:01:04.927Z,15.40
2019-05-17T13:02:05.066Z,15.50
2019-05-17T13:03:04.364Z,15.50
2019-05-17T13:04:05.081Z,15.50
2019-05-17T13:05:05.166Z,15.60
2019-05-17T13:06:05.201Z,15.60